Date,TemperatureHighF,TemperatureAvgF,TemperatureLowF,DewpointHighF,DewpointAvgF,DewpointLowF,HumidityHigh,HumidityAvg,HumidityLow,PressureMaxIn,PressureMinIn,WindSpeedMaxMPH,WindSpeedAvgMPH,GustSpeedMaxMPH,PrecipitationSumIn
2013-12-1,51.4,36.8,25.5,22.1,16.6,12.2,59,45,27,29.65,29.32,6,1,6,0.00
2013-12-2,45.9,42.1,39.2,30.7,26.2,21.8,63,53,46,29.32,29.17,6,1,6,0.00
2013-12-3,56.7,44.8,38.5,31.6,27.6,24.3,68,53,29,29.29,29.17,10,1,11,0.00
2013-12-4,53.2,46.4,37.6,43.8,35.0,27.0,74,64,54,29.38,29.29,8,2,8,0.00
2013-12-5,67.3,58.4,51.6,57.0,49.5,44.0,86,73,47,29.35,29.23,16,6,16,0.00
2013-12-6,63.1,50.4,38.8,58.9,43.6,31.6,87,78,65,29.47,29.17,17,5,17,0.63
2013-12-7,41.9,36.7,31.8,31.9,20.9,10.2,76,54,36,29.82,29.42,13,5,13,0.12
2013-12-8,31.8,30.2,28.9,24.8,16.2,8.6,75,57,41,29.88,29.58,7,2,7,0.16
2013-12-9,34.9,33.0,31.5,28.6,26.7,24.3,83,78,74,29.58,29.32,0,0,0,0.51
2013-12-10,37.2,32.5,27.3,28.5,24.9,17.5,83,74,54,29.52,29.29,10,1,11,0.16
2013-12-11,40.3,29.5,22.1,19.8,14.5,9.9,67,55,31,29.70,29.52,8,1,8,0.20
2013-12-12,32.7,26.8,22.6,15.6,5.8,0.7,62,41,29,29.73,29.52,13,3,13,0.00
2013-12-13,40.8,31.2,22.5,16.2,8.7,1.6,52,39,25,29.58,29.50,8,2,8,0.04
2013-12-14,38.1,34.5,31.5,29.6,22.8,16.0,82,63,51,29.61,29.02,8,2,8,0.55
2013-12-15,44.8,36.2,30.4,33.5,22.2,11.2,83,60,34,29.23,28.93,15,4,15,0.04
2013-12-16,37.0,34.0,31.1,17.2,13.9,11.5,52,43,38,29.47,29.23,8,2,8,0.00
2013-12-17,38.8,35.6,33.1,28.0,20.6,14.2,71,55,45,29.44,29.23,8,2,8,0.00
2013-12-18,42.6,33.5,28.4,25.2,15.1,8.8,71,48,29,29.50,29.29,12,2,12,0.00
2013-12-19,58.3,41.3,27.3,20.7,16.5,13.4,59,39,19,29.50,29.35,12,3,12,0.00
2013-12-20,57.0,49.4,39.6,31.2,21.7,15.0,47,34,26,29.41,29.29,13,4,13,0.00
2013-12-21,67.8,59.3,50.9,53.1,39.2,27.4,66,48,35,29.32,29.20,23,8,23,0.00
2013-12-22,67.6,62.3,59.2,56.3,53.9,48.0,89,75,52,29.32,29.14,23,8,23,0.20
2013-12-23,60.6,53.1,37.8,58.6,42.9,16.1,93,71,40,29.52,29.20,15,5,15,0.59
2013-12-24,38.8,32.6,22.5,16.5,7.5,-5.9,44,35,25,29.76,29.50,17,7,17,0.00
2013-12-25,35.1,26.0,20.3,7.1,0.3,-4.0,44,33,24,29.85,29.64,10,4,10,0.00
2013-12-26,44.4,32.0,25.0,13.0,10.5,7.1,54,41,27,29.64,29.50,10,2,11,0.00
2013-12-27,49.6,34.8,25.9,15.9,11.3,7.2,53,39,18,29.70,29.61,10,2,11,0.00
2013-12-28,56.5,40.1,28.2,20.3,15.2,9.2,54,38,17,29.61,29.41,12,2,12,0.00
2013-12-29,45.3,42.5,38.3,41.4,33.0,19.4,86,70,41,29.41,28.84,10,2,10,1.14
2013-12-30,41.9,36.6,32.7,33.5,21.8,11.0,82,57,40,29.47,29.11,10,3,11,0.00
2013-12-31,44.8,34.8,30.4,19.8,11.3,5.1,53,38,26,29.61,29.38,15,4,15,0.00